Time;durP1;ratioP1;P1;durP2;ratioP2;P2;SDS_P1;SDS_P2;PMS_P1;PMS_P2;Temp;Humidity;BMP_temperature;BMP_pressure;BME280_temperature;BME280_humidity;BME280_pressure;Samples;Min_cycle;Max_cycle;Signal;HPM_P1;HPM_P2
2022/06/12 00:01:21;;;;;;;12.00;2.35;;;12.20;65.30;;;;;;4131504;28;20038;-83
2022/06/12 00:03:25;;;;;;;14.83;3.30;;;12.20;65.30;;;;;;4132738;28;20156;-82
2022/06/12 00:05:30;;;;;;;13.25;2.20;;;12.20;65.60;;;;;;4136156;28;20084;-83
2022/06/12 00:07:30;;;;;;;18.15;3.13;;;12.20;65.80;;;;;;4127779;28;20030;-82
2022/06/12 00:09:31;;;;;;;12.20;2.28;;;12.10;65.80;;;;;;4130392;28;20026;-83
2022/06/12 00:11:33;;;;;;;12.60;2.50;;;12.10;65.80;;;;;;4131933;28;20030;-82
2022/06/12 00:13:51;;;;;;;12.13;2.65;;;12.10;65.90;;;;;;4131146;28;20041;-81
2022/06/12 00:15:53;;;;;;;16.40;2.63;;;12.10;67.40;;;;;;4130302;28;20046;-82
2022/06/12 00:17:54;;;;;;;15.07;2.65;;;12.10;66.70;;;;;;4134019;28;20124;-83
2022/06/12 00:19:54;;;;;;;16.67;2.80;;;12.00;66.60;;;;;;4128540;28;20064;-81
2022/06/12 00:21:55;;;;;;;23.63;3.50;;;12.00;66.90;;;;;;4126388;28;20183;-82
2022/06/12 00:24:02;;;;;;;18.60;2.97;;;12.00;67.00;;;;;;4130338;28;20029;-83
2022/06/12 00:26:03;;;;;;;15.65;3.17;;;12.00;67.10;;;;;;4130079;28;20045;-83
2022/06/12 00:28:05;;;;;;;15.82;2.47;;;12.00;67.50;;;;;;4128842;28;20025;-82
2022/06/12 00:30:08;;;;;;;14.32;2.33;;;11.90;67.30;;;;;;4131622;28;20805;-83
2022/06/12 00:32:13;;;;;;;13.77;2.50;;;11.90;67.50;;;;;;4128457;28;20037;-82
2022/06/12 00:34:17;;;;;;;15.80;2.83;;;11.90;67.60;;;;;;4132535;28;20027;-82
2022/06/12 00:36:18;;;;;;;12.82;2.63;;;11.90;67.60;;;;;;4134302;28;20251;-83
2022/06/12 00:38:19;;;;;;;12.95;2.80;;;11.90;67.80;;;;;;4130114;28;20103;-82
2022/06/12 00:40:20;;;;;;;13.13;2.47;;;11.90;67.80;;;;;;4133901;28;20232;-81
2022/06/12 00:42:29;;;;;;;19.25;2.78;;;11.90;67.90;;;;;;4132549;28;20120;-82
2022/06/12 00:44:36;;;;;;;10.98;2.13;;;11.80;67.80;;;;;;4128884;28;20494;-82
2022/06/12 00:46:40;;;;;;;15.77;3.03;;;11.80;67.80;;;;;;4115928;28;20458;-83
2022/06/12 00:48:40;;;;;;;20.80;3.60;;;11.80;68.10;;;;;;4111107;28;20314;-83
2022/06/12 00:50:47;;;;;;;11.52;2.72;;;11.80;68.10;;;;;;4123821;28;20030;-81
2022/06/12 00:52:50;;;;;;;15.75;2.72;;;11.80;68.30;;;;;;4116555;28;20034;-83
2022/06/12 00:55:01;;;;;;;25.67;4.03;;;11.80;68.50;;;;;;4131128;28;20022;-83
2022/06/12 00:57:03;;;;;;;17.85;2.70;;;11.70;68.60;;;;;;4128027;28;20054;-83
2022/06/12 00:59:10;;;;;;;17.33;3.25;;;11.70;68.60;;;;;;4129399;28;20029;-83
2022/06/12 01:01:18;;;;;;;17.10;2.65;;;11.70;68.70;;;;;;4128673;28;20026;-82
2022/06/12 01:03:20;;;;;;;19.50;2.63;;;11.70;68.80;;;;;;4129418;28;20042;-82
2022/06/12 01:07:46;;;;;;;17.45;3.00;;;11.70;69.10;;;;;;4129512;28;20022;-83
2022/06/12 01:09:50;;;;;;;13.80;2.75;;;11.70;69.20;;;;;;4133046;28;20057;-83
2022/06/12 01:11:54;;;;;;;16.98;2.55;;;11.70;69.30;;;;;;4114657;28;20027;-83
2022/06/12 01:13:54;;;;;;;14.02;2.63;;;11.70;69.40;;;;;;4128902;28;20073;-83
2022/06/12 01:15:59;;;;;;;21.85;3.13;;;11.70;69.40;;;;;;4144693;28;20033;-82
2022/06/12 01:18:01;;;;;;;14.30;2.70;;;11.70;69.40;;;;;;4125669;28;20030;-83
2022/06/12 01:20:09;;;;;;;13.60;2.88;;;11.70;69.70;;;;;;4130698;28;20056;-81
2022/06/12 01:22:47;;;;;;;20.20;3.03;;;11.70;69.80;;;;;;4131688;28;20036;-82
2022/06/12 01:25:05;;;;;;;19.20;2.72;;;11.60;70.00;;;;;;4112442;28;20121;-83
2022/06/12 01:27:44;;;;;;;15.82;2.67;;;11.70;69.80;;;;;;4129939;28;20585;-82
2022/06/12 01:30:00;;;;;;;14.93;3.00;;;11.60;70.10;;;;;;4128447;28;20506;-82
2022/06/12 01:32:14;;;;;;;19.98;2.80;;;11.60;69.90;;;;;;4132546;28;20026;-82
2022/06/12 01:34:32;;;;;;;14.50;2.90;;;11.60;70.00;;;;;;4126403;28;20057;-83
2022/06/12 01:36:44;;;;;;;17.92;2.50;;;11.60;70.60;;;;;;4128100;28;20086;-82
2022/06/12 01:38:52;;;;;;;17.65;3.10;;;11.60;69.90;;;;;;4127145;28;20037;-83
2022/06/12 01:41:10;;;;;;;18.70;3.60;;;11.60;70.10;;;;;;4132466;28;20041;-83
2022/06/12 01:43:32;;;;;;;12.15;2.20;;;11.60;70.30;;;;;;4125113;28;20099;-82
2022/06/12 01:45:35;;;;;;;14.55;2.72;;;11.60;70.00;;;;;;4127364;28;20033;-83
2022/06/12 01:47:46;;;;;;;15.48;2.72;;;11.60;70.10;;;;;;4131299;28;20954;-83
2022/06/12 01:50:31;;;;;;;15.05;2.72;;;11.60;70.10;;;;;;4128538;28;20105;-82
2022/06/12 01:53:02;;;;;;;18.98;2.83;;;11.60;70.90;;;;;;4096442;28;20428;-81
2022/06/12 01:55:22;;;;;;;16.83;2.53;;;11.60;70.60;;;;;;4114488;28;20403;-83
2022/06/12 01:57:22;;;;;;;15.32;2.58;;;11.50;70.10;;;;;;4114842;28;20201;-84
2022/06/12 01:59:45;;;;;;;21.00;3.40;;;11.50;70.30;;;;;;4082606;28;20408;-82
2022/06/12 02:01:53;;;;;;;11.90;2.25;;;11.50;70.60;;;;;;4111013;28;20046;-81
2022/06/12 02:04:01;;;;;;;12.15;2.45;;;11.50;70.30;;;;;;4112684;28;20026;-84
2022/06/12 02:06:19;;;;;;;11.98;2.17;;;11.50;70.30;;;;;;4096421;28;20039;-83
2022/06/12 02:08:31;;;;;;;11.68;2.13;;;11.50;70.60;;;;;;4113009;28;20035;-83
2022/06/12 02:10:32;;;;;;;16.30;2.88;;;11.50;70.70;;;;;;4099974;28;22113;-82
2022/06/12 02:15:06;;;;;;;17.77;2.58;;;11.50;70.70;;;;;;4117678;28;20034;-83
2022/06/12 02:17:13;;;;;;;15.02;2.40;;;11.50;70.80;;;;;;4116361;28;20026;-83
2022/06/12 02:19:21;;;;;;;13.88;2.55;;;11.50;70.80;;;;;;4110952;28;20042;-83
2022/06/12 02:21:41;;;;;;;18.30;3.33;;;11.50;70.80;;;;;;4113094;28;20177;-82
2022/06/12 02:23:48;;;;;;;15.45;2.78;;;11.50;70.90;;;;;;4098398;28;20038;-83
2022/06/12 02:25:52;;;;;;;18.35;2.63;;;11.40;70.70;;;;;;4099552;28;20748;-82
2022/06/12 02:28:01;;;;;;;17.95;2.63;;;11.40;70.70;;;;;;4104136;28;20046;-83
2022/06/12 02:30:19;;;;;;;15.13;2.30;;;11.40;70.70;;;;;;4125053;28;20387;-81
2022/06/12 02:32:38;;;;;;;16.25;2.47;;;11.40;70.90;;;;;;4128461;28;20033;-83
2022/06/12 02:34:43;;;;;;;13.45;2.05;;;11.40;71.10;;;;;;4128621;28;20038;-83
2022/06/12 02:36:48;;;;;;;9.70;2.05;;;11.40;70.80;;;;;;4127236;28;20090;-83
2022/06/12 02:38:57;;;;;;;14.00;2.58;;;11.40;70.70;;;;;;4131238;28;20038;-83
2022/06/12 02:41:05;;;;;;;12.35;2.00;;;11.40;70.80;;;;;;4133563;28;20034;-82
2022/06/12 02:43:12;;;;;;;11.93;2.30;;;11.40;70.70;;;;;;4129213;28;20038;-83
2022/06/12 02:45:33;;;;;;;17.75;2.58;;;11.40;70.70;;;;;;4127846;28;20140;-83
2022/06/12 02:47:38;;;;;;;15.00;2.58;;;11.40;71.10;;;;;;4111284;28;20027;-83
2022/06/12 02:49:43;;;;;;;17.60;2.70;;;11.40;70.80;;;;;;4122755;28;20132;-83
2022/06/12 02:52:11;;;;;;;14.00;2.63;;;11.40;70.80;;;;;;4132785;28;20622;-83
2022/06/12 02:54:44;;;;;;;19.70;2.63;;;11.30;71.10;;;;;;4124792;28;20026;-83
2022/06/12 02:56:44;;;;;;;15.95;2.42;;;11.30;71.40;;;;;;4126045;28;20033;-83
2022/06/12 02:58:57;;;;;;;11.35;2.50;;;11.40;71.10;;;;;;4129564;28;20045;-82
2022/06/12 03:01:17;;;;;;;18.17;2.50;;;11.40;71.00;;;;;;4130721;28;20052;-82
2022/06/12 03:03:35;;;;;;;12.38;2.22;;;11.30;70.80;;;;;;4128286;28;20049;-83
2022/06/12 03:05:41;;;;;;;12.05;2.25;;;11.40;71.10;;;;;;4128631;28;20037;-83
2022/06/12 03:07:42;;;;;;;12.75;2.28;;;11.40;71.00;;;;;;4126775;28;20033;-82
2022/06/12 03:09:43;;;;;;;11.48;2.22;;;11.40;71.10;;;;;;4136815;28;20379;-83
2022/06/12 03:11:46;;;;;;;10.75;2.78;;;11.40;71.10;;;;;;4122157;28;20577;-82
2022/06/12 03:13:49;;;;;;;17.63;2.88;;;11.40;71.20;;;;;;4126414;28;20076;-83
2022/06/12 03:15:57;;;;;;;12.52;2.25;;;11.40;71.20;;;;;;4130031;28;20034;-83
2022/06/12 03:17:59;;;;;;;10.00;2.20;;;11.50;71.40;;;;;;4121611;28;20046;-84
2022/06/12 03:20:00;;;;;;;12.75;2.38;;;11.50;71.40;;;;;;4140388;28;20033;-83
2022/06/12 03:22:23;;;;;;;13.35;2.40;;;11.50;71.60;;;;;;4124649;28;20035;-84
2022/06/12 03:24:29;;;;;;;10.90;2.03;;;11.50;71.70;;;;;;4129364;28;20033;-84
2022/06/12 03:26:47;;;;;;;21.50;3.00;;;11.60;71.60;;;;;;4124170;28;20037;-82
2022/06/12 03:29:13;;;;;;;12.93;2.33;;;11.60;71.70;;;;;;4128683;28;20105;-84
2022/06/12 03:31:34;;;;;;;13.40;2.55;;;11.60;72.00;;;;;;4124712;28;20454;-83
2022/06/12 03:34:02;;;;;;;17.67;2.40;;;11.70;71.70;;;;;;4131340;28;20077;-83
2022/06/12 03:36:21;;;;;;;14.57;2.47;;;11.70;71.80;;;;;;4130957;28;20049;-83
2022/06/12 03:38:21;;;;;;;16.35;2.85;;;11.70;71.80;;;;;;4131442;28;20034;-82
2022/06/12 03:41:01;;;;;;;16.92;3.03;;;11.70;71.70;;;;;;4135774;28;20125;-83
2022/06/12 03:43:16;;;;;;;14.95;3.25;;;11.80;72.10;;;;;;4147743;28;20519;-83
2022/06/12 03:45:38;;;;;;;19.40;2.88;;;11.80;72.00;;;;;;4136192;28;20030;-83
2022/06/12 03:47:58;;;;;;;19.38;2.85;;;11.80;71.80;;;;;;4135314;28;20498;-83
2022/06/12 03:50:06;;;;;;;16.08;2.28;;;11.90;71.90;;;;;;4125893;28;20022;-83
2022/06/12 03:52:26;;;;;;;15.18;2.90;;;11.90;71.80;;;;;;4133460;28;20033;-83
2022/06/12 03:54:41;;;;;;;16.48;2.95;;;11.90;72.10;;;;;;4130088;28;20037;-83
2022/06/12 03:59:53;;;;;;;17.25;2.70;;;12.00;72.10;;;;;;4131549;28;20057;-83
2022/06/12 04:02:20;;;;;;;18.65;3.22;;;12.00;72.30;;;;;;4132631;28;20036;-83
2022/06/12 04:04:30;;;;;;;17.45;2.78;;;12.00;72.10;;;;;;4131047;28;20590;-83
2022/06/12 04:06:54;;;;;;;13.32;2.42;;;12.10;72.30;;;;;;4129505;28;20104;-83
2022/06/12 04:09:23;;;;;;;17.00;3.20;;;12.10;72.40;;;;;;4132790;28;20026;-84
2022/06/12 04:11:38;;;;;;;20.08;3.03;;;12.20;72.60;;;;;;4119604;28;20113;-83
2022/06/12 04:13:59;;;;;;;12.93;2.53;;;12.10;72.50;;;;;;4133099;28;20034;-84
2022/06/12 04:16:23;;;;;;;13.80;2.53;;;12.20;72.50;;;;;;4126591;28;20038;-83
2022/06/12 04:18:44;;;;;;;18.35;3.10;;;12.20;72.70;;;;;;4139886;28;20120;-84
2022/06/12 04:21:17;;;;;;;18.52;2.60;;;12.20;72.80;;;;;;4131903;28;20042;-84
2022/06/12 04:23:48;;;;;;;10.63;2.50;;;12.30;72.90;;;;;;4135045;28;20066;-82
2022/06/12 04:26:35;;;;;;;14.52;2.88;;;12.30;72.90;;;;;;4131461;28;20904;-84
2022/06/12 04:29:03;;;;;;;21.52;3.25;;;12.40;72.90;;;;;;4132397;28;20029;-84
2022/06/12 04:31:25;;;;;;;18.83;3.17;;;12.40;73.10;;;;;;4131696;28;20152;-84
2022/06/12 04:33:55;;;;;;;21.98;3.17;;;12.40;73.10;;;;;;4132998;28;20038;-84
2022/06/12 04:35:58;;;;;;;20.83;3.30;;;12.40;73.30;;;;;;4131880;28;20034;-83
2022/06/12 04:37:59;;;;;;;;;;;12.40;73.10;;;;;;4129783;28;20033;-84
2022/06/12 04:40:02;;;;;;;17.60;3.50;;;12.50;74.70;;;;;;4131676;28;19921;-84
2022/06/12 04:42:05;;;;;;;15.15;3.00;;;12.50;73.20;;;;;;4113002;28;20058;-84
2022/06/12 04:44:07;;;;;;;17.38;2.50;;;12.50;73.20;;;;;;4132616;28;20038;-84
2022/06/12 04:46:09;;;;;;;17.60;2.97;;;12.60;73.50;;;;;;4126554;28;20088;-84
2022/06/12 04:48:15;;;;;;;16.00;3.10;;;12.50;73.40;;;;;;4134332;28;20113;-84
2022/06/12 04:50:16;;;;;;;20.98;3.30;;;12.60;73.50;;;;;;4130180;28;20618;-83
2022/06/12 04:52:17;;;;;;;13.25;2.30;;;12.60;73.50;;;;;;4129154;28;20030;-83
2022/06/12 04:54:18;;;;;;;15.77;3.20;;;12.60;73.60;;;;;;4129541;28;20048;-84
2022/06/12 04:56:22;;;;;;;22.67;3.95;;;12.60;73.60;;;;;;4130759;28;20034;-84
2022/06/12 04:58:23;;;;;;;14.23;2.65;;;12.60;73.70;;;;;;4129101;28;20048;-84
2022/06/12 05:00:24;;;;;;;23.27;3.63;;;12.70;74.00;;;;;;4130922;28;20148;-83
2022/06/12 05:02:25;;;;;;;13.50;2.70;;;12.70;73.90;;;;;;4131659;28;20076;-83
2022/06/12 05:04:27;;;;;;;19.23;3.25;;;12.70;73.90;;;;;;4130599;28;20479;-83
2022/06/12 05:06:28;;;;;;;20.60;3.25;;;12.70;73.90;;;;;;4131580;28;20026;-83
2022/06/12 05:08:30;;;;;;;20.35;3.38;;;12.80;74.00;;;;;;4128083;28;20033;-83
2022/06/12 05:10:31;;;;;;;22.83;3.35;;;12.80;74.00;;;;;;4126741;28;20038;-82
2022/06/12 05:12:31;;;;;;;16.95;3.10;;;12.80;74.20;;;;;;4130799;28;20037;-82
2022/06/12 05:14:32;;;;;;;20.98;2.85;;;12.80;74.10;;;;;;4126558;28;20467;-84
2022/06/12 05:16:38;;;;;;;19.50;3.17;;;12.90;74.30;;;;;;4127557;28;20045;-83
2022/06/12 05:18:39;;;;;;;20.40;2.88;;;12.90;74.40;;;;;;4129704;28;20438;-83
2022/06/12 05:20:41;;;;;;;16.55;3.00;;;12.90;74.50;;;;;;4129866;28;20030;-83
2022/06/12 05:22:41;;;;;;;13.18;2.78;;;12.90;74.60;;;;;;4125357;28;20043;-84
2022/06/12 05:24:47;;;;;;;19.83;3.22;;;13.00;74.70;;;;;;4129626;28;20109;-83
2022/06/12 05:26:49;;;;;;;20.77;3.35;;;13.00;75.00;;;;;;4126869;28;20022;-83
2022/06/12 05:28:51;;;;;;;15.02;3.03;;;13.10;75.00;;;;;;4130671;28;20042;-83
2022/06/12 05:30:51;;;;;;;14.70;3.63;;;13.00;75.00;;;;;;4129543;28;20038;-82
2022/06/12 05:32:54;;;;;;;19.83;3.30;;;13.10;75.50;;;;;;4130278;28;20026;-82
2022/06/12 05:34:55;;;;;;;23.77;3.60;;;13.20;75.60;;;;;;4129352;28;20030;-82
2022/06/12 05:36:56;;;;;;;15.45;3.10;;;13.20;76.00;;;;;;4128731;28;20037;-82
2022/06/12 05:38:57;;;;;;;18.88;4.00;;;13.20;75.60;;;;;;4130831;28;20048;-82
2022/06/12 05:40:58;;;;;;;19.45;3.92;;;13.30;75.80;;;;;;4130284;28;20041;-83
2022/06/12 05:42:58;;;;;;;24.73;4.00;;;13.30;75.90;;;;;;4129578;28;20527;-83
2022/06/12 05:44:59;;;;;;;25.50;4.10;;;13.30;76.20;;;;;;4129922;28;20157;-82
2022/06/12 05:47:00;;;;;;;22.77;3.22;;;13.40;76.60;;;;;;4131528;28;20343;-83
2022/06/12 05:49:01;;;;;;;21.27;3.47;;;13.40;76.90;;;;;;4135907;28;20037;-84
2022/06/12 05:51:03;;;;;;;21.02;3.28;;;13.50;77.10;;;;;;4126454;28;20514;-84
2022/06/12 05:53:04;;;;;;;19.88;3.08;;;13.60;77.20;;;;;;4130381;28;20018;-84
2022/06/12 05:55:05;;;;;;;17.23;3.25;;;13.70;77.70;;;;;;4129342;28;20044;-84
2022/06/12 05:57:06;;;;;;;26.75;3.55;;;13.80;77.80;;;;;;4130000;28;20037;-83
2022/06/12 05:59:07;;;;;;;24.10;3.30;;;13.90;78.20;;;;;;4131611;28;20060;-83
2022/06/12 06:01:11;;;;;;;24.55;3.35;;;14.00;78.40;;;;;;4126935;28;20118;-82
2022/06/12 06:03:12;;;;;;;16.38;3.17;;;14.10;78.20;;;;;;4126219;28;20044;-82
2022/06/12 06:05:13;;;;;;;19.85;3.85;;;14.20;78.20;;;;;;4129205;28;20030;-83
2022/06/12 06:07:14;;;;;;;21.08;2.95;;;14.40;78.30;;;;;;4128813;28;21456;-82
2022/06/12 06:09:16;;;;;;;22.63;3.78;;;14.50;77.90;;;;;;4118162;28;20029;-84
2022/06/12 06:11:18;;;;;;;15.88;2.40;;;14.60;77.80;;;;;;4124910;28;20019;-83
2022/06/12 06:13:20;;;;;;;20.67;3.45;;;14.70;77.70;;;;;;4127561;28;20427;-83
2022/06/12 06:15:22;;;;;;;19.33;3.33;;;14.80;77.50;;;;;;4128309;28;20018;-82
2022/06/12 06:17:22;;;;;;;17.20;3.05;;;15.00;77.10;;;;;;4124681;28;20045;-82
2022/06/12 06:19:23;;;;;;;15.50;3.30;;;15.10;76.80;;;;;;4124320;28;20052;-83
2022/06/12 06:21:24;;;;;;;15.85;2.92;;;15.20;76.20;;;;;;4124647;28;20045;-85
2022/06/12 06:23:25;;;;;;;21.15;3.22;;;15.30;75.80;;;;;;4129994;28;20045;-83
2022/06/12 06:25:28;;;;;;;17.40;3.13;;;15.40;75.10;;;;;;4130293;28;20037;-84
2022/06/12 06:27:29;;;;;;;;;;;15.50;74.50;;;;;;4126410;28;20665;-84
2022/06/12 06:29:29;;;;;;;15.23;2.95;;;15.60;73.70;;;;;;4132447;28;20008;-81
2022/06/12 06:31:31;;;;;;;20.55;3.08;;;15.70;73.00;;;;;;4131118;28;20656;-83
2022/06/12 06:33:31;;;;;;;19.10;3.20;;;15.80;71.60;;;;;;4130382;28;20029;-83
2022/06/12 06:35:32;;;;;;;23.55;3.70;;;15.80;70.60;;;;;;4120760;28;20061;-83
2022/06/12 06:37:33;;;;;;;28.30;3.97;;;15.80;70.00;;;;;;4125524;28;20041;-83
2022/06/12 06:39:34;;;;;;;19.85;3.03;;;15.90;69.70;;;;;;4127852;28;20025;-82
2022/06/12 06:41:35;;;;;;;15.90;2.67;;;15.90;69.50;;;;;;4132610;28;20454;-83
2022/06/12 06:48:14;;;;;;;11.35;2.45;;;16.00;68.80;;;;;;4134639;28;20026;-83
2022/06/12 06:50:17;;;;;;;19.23;3.08;;;16.00;68.40;;;;;;4114632;28;20102;-82
2022/06/12 06:52:18;;;;;;;13.57;2.87;;;16.00;68.50;;;;;;4127759;28;20438;-84
2022/06/12 06:54:19;;;;;;;21.92;3.17;;;16.00;68.70;;;;;;4122705;28;20053;-83
2022/06/12 06:56:21;;;;;;;14.15;2.83;;;16.10;68.90;;;;;;4129546;28;20407;-82
2022/06/12 06:58:25;;;;;;;16.30;2.92;;;16.10;69.00;;;;;;4131550;28;20088;-83
2022/06/12 07:00:32;;;;;;;17.67;3.38;;;16.20;69.10;;;;;;4127305;28;20588;-83
2022/06/12 07:02:33;;;;;;;20.80;3.58;;;16.30;69.10;;;;;;4121562;28;20044;-82
2022/06/12 07:04:34;;;;;;;21.50;3.15;;;16.30;69.00;;;;;;4126114;28;20095;-84
2022/06/12 07:06:35;;;;;;;16.77;3.20;;;16.40;68.80;;;;;;4128760;28;20866;-83
2022/06/12 07:08:36;;;;;;;22.02;3.33;;;16.50;68.50;;;;;;4133295;28;20030;-83
2022/06/12 07:10:37;;;;;;;21.80;3.65;;;16.60;68.30;;;;;;4141583;28;20036;-82
2022/06/12 07:12:38;;;;;;;23.10;5.03;;;16.60;68.10;;;;;;4115039;28;20038;-83
2022/06/12 07:14:39;;;;;;;24.75;5.03;;;16.70;68.10;;;;;;4123935;28;20148;-82
2022/06/12 07:16:42;;;;;;;17.08;2.95;;;16.80;67.90;;;;;;4130942;28;20033;-81
2022/06/12 07:18:43;;;;;;;17.83;3.20;;;16.90;67.30;;;;;;4133231;28;20042;-83
2022/06/12 07:20:49;;;;;;;28.83;6.07;;;17.00;66.90;;;;;;4131081;28;20037;-82
2022/06/12 07:22:50;;;;;;;27.98;6.15;;;17.00;66.00;;;;;;4134843;28;20026;-82
2022/06/12 07:24:51;;;;;;;27.45;5.38;;;17.10;65.90;;;;;;4127244;28;20038;-80
2022/06/12 07:26:55;;;;;;;21.13;4.15;;;17.20;65.80;;;;;;4130358;28;20892;-81
2022/06/12 07:29:18;;;;;;;14.13;2.70;;;17.30;65.80;;;;;;4132468;28;20034;-84
2022/06/12 07:31:24;;;;;;;20.30;3.47;;;17.30;65.60;;;;;;4129687;28;20512;-82
2022/06/12 07:33:31;;;;;;;20.00;3.03;;;17.40;65.10;;;;;;4131065;28;20026;-81
2022/06/12 07:35:52;;;;;;;17.08;3.20;;;17.50;65.00;;;;;;4132973;28;21548;-83
2022/06/12 07:38:15;;;;;;;19.55;3.53;;;17.50;64.90;;;;;;4124725;28;20181;-80
2022/06/12 07:40:27;;;;;;;14.23;3.45;;;17.60;64.50;;;;;;4115394;28;20078;-82
2022/06/12 07:42:28;;;;;;;26.05;4.05;;;17.60;64.40;;;;;;4123112;28;20023;-81
2022/06/12 07:44:31;;;;;;;17.13;3.20;;;17.70;64.40;;;;;;4126955;28;20430;-82
2022/06/12 07:46:32;;;;;;;;;;;17.70;64.50;;;;;;4130603;28;20043;-81
2022/06/12 07:48:33;;;;;;;17.90;3.17;;;17.80;64.30;;;;;;4125230;28;19967;-82
2022/06/12 07:50:37;;;;;;;19.42;3.30;;;17.90;64.30;;;;;;4128459;28;20022;-83
2022/06/12 07:52:40;;;;;;;16.75;3.85;;;18.00;64.10;;;;;;4128479;28;20132;-83
2022/06/12 07:54:40;;;;;;;18.67;3.00;;;18.00;64.20;;;;;;4124567;28;20836;-82
2022/06/12 07:56:42;;;;;;;19.98;2.97;;;18.10;64.00;;;;;;4125720;28;20065;-82
2022/06/12 07:58:45;;;;;;;19.40;3.35;;;18.20;64.20;;;;;;4134075;28;20265;-82
2022/06/12 08:00:47;;;;;;;15.73;3.03;;;18.20;64.20;;;;;;4131964;28;20034;-82
2022/06/12 08:02:48;;;;;;;19.15;2.92;;;18.30;63.80;;;;;;4125567;28;20490;-82
2022/06/12 08:04:48;;;;;;;15.10;3.17;;;18.40;63.80;;;;;;4127332;28;20030;-80
2022/06/12 08:06:50;;;;;;;14.50;3.33;;;18.50;63.70;;;;;;4124305;28;20053;-80
2022/06/12 08:08:52;;;;;;;16.50;3.60;;;18.60;63.40;;;;;;4127551;28;20627;-82
2022/06/12 08:10:53;;;;;;;15.02;2.75;;;18.70;63.20;;;;;;4128348;28;20031;-83
2022/06/12 08:12:56;;;;;;;19.33;4.72;;;18.80;63.40;;;;;;4131758;28;20041;-82
2022/06/12 08:14:57;;;;;;;15.07;3.45;;;18.80;63.10;;;;;;4133288;28;20178;-82
2022/06/12 08:16:57;;;;;;;16.25;2.80;;;18.90;62.80;;;;;;4131971;28;20030;-82
2022/06/12 08:18:59;;;;;;;18.73;4.07;;;19.00;61.90;;;;;;4129593;28;20053;-83
2022/06/12 08:21:05;;;;;;;18.25;4.55;;;19.10;61.80;;;;;;4130367;28;20031;-81
2022/06/12 08:23:37;;;;;;;18.98;3.00;;;19.20;61.50;;;;;;4133613;28;20030;-81
2022/06/12 08:25:38;;;;;;;16.80;3.60;;;19.30;61.10;;;;;;4128045;28;20684;-82
2022/06/12 08:27:40;;;;;;;19.10;3.20;;;19.40;60.80;;;;;;4131999;28;20505;-81
2022/06/12 08:29:41;;;;;;;14.52;2.70;;;19.40;60.00;;;;;;4124648;28;20058;-82
2022/06/12 08:31:46;;;;;;;15.65;3.92;;;19.50;59.80;;;;;;4130958;28;20447;-81
2022/06/12 08:33:50;;;;;;;11.60;2.53;;;19.60;60.10;;;;;;4125557;28;20034;-82
2022/06/12 08:35:52;;;;;;;14.30;2.03;;;19.60;59.50;;;;;;4129299;28;20509;-82
2022/06/12 08:37:54;;;;;;;15.15;2.20;;;19.70;58.50;;;;;;4134932;28;20050;-83
2022/06/12 08:39:55;;;;;;;11.90;2.10;;;19.80;58.80;;;;;;4132563;28;20042;-81
2022/06/12 08:42:09;;;;;;;10.20;2.17;;;19.90;58.60;;;;;;4122226;28;20027;-82
2022/06/12 08:44:29;;;;;;;13.43;2.85;;;20.00;57.20;;;;;;4127675;28;20466;-83
2022/06/12 08:46:47;;;;;;;15.32;2.60;;;20.00;56.90;;;;;;4132263;28;20118;-83
2022/06/12 08:48:59;;;;;;;9.30;2.20;;;20.10;56.20;;;;;;4130953;28;21023;-81
2022/06/12 08:51:22;;;;;;;12.35;2.20;;;20.10;56.70;;;;;;4130063;28;20022;-82
2022/06/12 08:53:32;;;;;;;15.65;2.95;;;20.10;55.90;;;;;;4124295;28;20249;-81
2022/06/12 08:56:02;;;;;;;9.55;2.80;;;20.10;55.20;;;;;;4121702;28;22079;-81
2022/06/12 08:58:41;;;;;;;12.77;2.60;;;20.20;55.50;;;;;;4129206;28;20760;-80
2022/06/12 09:00:44;;;;;;;13.75;2.90;;;20.20;55.30;;;;;;4132949;28;20026;-81
2022/06/12 09:02:46;;;;;;;7.40;1.70;;;20.20;55.60;;;;;;4127616;28;21498;-82
2022/06/12 09:04:48;;;;;;;11.50;2.37;;;20.20;55.40;;;;;;4130131;28;20295;-83
2022/06/12 09:06:48;;;;;;;11.15;1.83;;;20.30;55.30;;;;;;4126046;28;20029;-83
2022/06/12 09:08:54;;;;;;;9.95;2.13;;;20.30;55.50;;;;;;4125282;28;20617;-82
2022/06/12 09:11:12;;;;;;;13.20;2.28;;;20.40;55.00;;;;;;4121707;28;20030;-82
2022/06/12 09:13:39;;;;;;;15.60;2.35;;;20.50;55.40;;;;;;4128146;28;20026;-83
2022/06/12 09:15:41;;;;;;;16.17;2.55;;;20.50;54.30;;;;;;4122060;28;20022;-82
2022/06/12 09:18:04;;;;;;;7.88;1.90;;;20.60;54.40;;;;;;4126721;28;20530;-82
2022/06/12 09:20:30;;;;;;;13.43;2.50;;;20.60;53.50;;;;;;4125259;28;20116;-81
2022/06/12 09:22:31;;;;;;;12.48;2.25;;;20.70;53.00;;;;;;4143186;28;20544;-82
2022/06/12 09:24:48;;;;;;;17.40;2.70;;;20.70;53.90;;;;;;4125576;28;20037;-83
2022/06/12 09:27:16;;;;;;;7.25;2.47;;;20.80;53.90;;;;;;4131138;28;20671;-81
2022/06/12 09:29:46;;;;;;;9.63;2.00;;;20.90;54.10;;;;;;4133994;28;20538;-81
2022/06/12 09:32:06;;;;;;;14.30;2.10;;;20.90;53.20;;;;;;4127700;28;22628;-82
2022/06/12 09:34:14;;;;;;;15.10;2.90;;;21.00;53.20;;;;;;4129162;28;20562;-82
2022/06/12 09:36:41;;;;;;;14.43;2.22;;;21.20;53.30;;;;;;4134282;28;20026;-81
2022/06/12 09:38:53;;;;;;;8.30;1.88;;;21.20;53.10;;;;;;4129333;28;20494;-83
2022/06/12 09:41:05;;;;;;;11.35;2.20;;;21.30;52.30;;;;;;4128188;28;20498;-81
2022/06/12 09:43:34;;;;;;;11.80;2.35;;;21.30;51.90;;;;;;4132507;28;21185;-82
2022/06/12 09:46:01;;;;;;;15.15;3.08;;;21.30;52.40;;;;;;4125817;28;20062;-82
2022/06/12 09:48:11;;;;;;;16.55;2.90;;;21.40;52.70;;;;;;4115182;28;20724;-79
2022/06/12 09:50:20;;;;;;;12.30;2.78;;;21.40;52.20;;;;;;4125555;28;20025;-82
2022/06/12 09:53:00;;;;;;;8.60;2.75;;;21.50;51.80;;;;;;4124714;28;20796;-81
2022/06/12 09:55:41;;;;;;;14.55;2.97;;;21.50;50.90;;;;;;4126694;28;20372;-82
2022/06/12 09:58:12;;;;;;;11.65;2.03;;;21.50;50.50;;;;;;4125430;28;20078;-81
2022/06/12 10:01:08;;;;;;;16.15;2.33;;;21.50;51.10;;;;;;4125399;28;20117;-81
2022/06/12 10:03:10;;;;;;;16.20;2.65;;;21.50;50.60;;;;;;4122460;28;20897;-81
2022/06/12 10:05:22;;;;;;;12.85;3.08;;;21.50;51.40;;;;;;4125165;28;20195;-82
2022/06/12 10:07:31;;;;;;;16.00;3.00;;;21.50;50.80;;;;;;4131972;28;20407;-82
2022/06/12 10:09:45;;;;;;;10.95;1.95;;;21.60;50.60;;;;;;4128434;28;20710;-83
2022/06/12 10:12:26;;;;;;;11.43;1.80;;;21.60;50.60;;;;;;4132605;28;20480;-82
2022/06/12 10:14:36;;;;;;;16.65;3.10;;;21.60;49.90;;;;;;4108016;28;20625;-80
2022/06/12 10:16:42;;;;;;;11.25;2.05;;;21.60;49.90;;;;;;4111634;28;20683;-82
2022/06/12 10:18:52;;;;;;;13.05;1.92;;;21.60;49.70;;;;;;4115033;28;20042;-80
2022/06/12 10:20:59;;;;;;;12.32;2.33;;;21.70;49.70;;;;;;4113403;28;20561;-82
2022/06/12 10:23:01;;;;;;;9.23;1.95;;;21.70;50.30;;;;;;4113121;28;20069;-82
2022/06/12 10:25:04;;;;;;;6.95;1.83;;;21.70;49.80;;;;;;4114619;28;20588;-79
2022/06/12 10:27:17;;;;;;;11.82;2.17;;;21.70;48.90;;;;;;4112936;28;20052;-82
2022/06/12 10:29:24;;;;;;;10.65;2.15;;;21.80;47.40;;;;;;4098920;28;20114;-82
2022/06/12 10:31:25;;;;;;;9.13;2.08;;;21.80;48.70;;;;;;4099961;28;20447;-82
2022/06/12 10:33:48;;;;;;;6.20;1.90;;;21.90;48.10;;;;;;4096594;28;20034;-81
2022/06/12 10:36:00;;;;;;;7.25;1.70;;;21.90;47.60;;;;;;4106743;28;20248;-81
2022/06/12 10:38:06;;;;;;;10.57;1.92;;;21.80;46.00;;;;;;4113064;28;20578;-83
2022/06/12 10:40:16;;;;;;;10.57;1.85;;;21.80;47.20;;;;;;4118368;28;20064;-82
2022/06/12 10:43:09;;;;;;;12.68;1.98;;;21.80;47.40;;;;;;4100414;28;20146;-81
2022/06/12 10:45:36;;;;;;;11.05;1.77;;;21.80;46.70;;;;;;4082445;28;20546;-82
2022/06/12 10:47:44;;;;;;;9.70;1.90;;;21.80;46.00;;;;;;4066795;29;20036;-81
2022/06/12 10:49:47;;;;;;;10.02;2.22;;;21.70;46.30;;;;;;4071658;29;20067;-81
2022/06/12 10:51:50;;;;;;;8.27;1.70;;;21.70;46.60;;;;;;4079235;28;21926;-83
2022/06/12 10:54:05;;;;;;;15.00;2.72;;;21.70;46.80;;;;;;4054234;29;20288;-83
2022/06/12 10:56:22;;;;;;;13.52;2.30;;;21.70;47.20;;;;;;4083545;28;22555;-81
2022/06/12 10:58:50;;;;;;;7.18;1.33;;;21.70;46.90;;;;;;4083887;28;20519;-82
2022/06/12 11:00:58;;;;;;;10.65;1.60;;;21.80;46.00;;;;;;4082314;28;20924;-81
2022/06/12 11:03:02;;;;;;;8.93;1.50;;;21.80;46.70;;;;;;4084590;28;20488;-82
2022/06/12 11:05:09;;;;;;;5.80;1.48;;;21.90;46.10;;;;;;4083479;28;20555;-82
2022/06/12 11:07:30;;;;;;;7.20;1.50;;;21.90;45.00;;;;;;4085462;28;20757;-81
2022/06/12 11:10:05;;;;;;;8.00;1.98;;;21.90;45.00;;;;;;4087196;28;20032;-83
2022/06/12 11:12:15;;;;;;;6.10;1.40;;;21.90;44.90;;;;;;4081042;28;20035;-81
2022/06/12 11:14:52;;;;;;;7.82;2.08;;;21.90;45.30;;;;;;4085589;28;20036;-81
2022/06/12 11:17:14;;;;;;;6.63;1.38;;;21.90;44.30;;;;;;4083023;28;20479;-82
2022/06/12 11:19:35;;;;;;;7.38;1.52;;;22.00;44.00;;;;;;4071878;29;20119;-83